sensor_id;sensor_type;location;lat;lon;timestamp;P1;durP1;ratioP1;P2;durP2;ratioP2
33347;SDS011;19707;51.158;17.124;2023-04-25T00:01:01;6.60;;;3.00;;
33347;SDS011;19707;51.158;17.124;2023-04-25T00:04:05;4.90;;;2.70;;
33347;SDS011;19707;51.158;17.124;2023-04-25T00:07:07;3.70;;;2.60;;
33347;SDS011;19707;51.158;17.124;2023-04-25T00:10:09;6.20;;;2.90;;
33347;SDS011;19707;51.158;17.124;2023-04-25T00:13:13;4.00;;;2.70;;
33347;SDS011;19707;51.158;17.124;2023-04-25T00:16:16;5.00;;;2.40;;
33347;SDS011;19707;51.158;17.124;2023-04-25T00:19:19;4.50;;;2.50;;
33347;SDS011;19707;51.158;17.124;2023-04-25T00:22:21;4.00;;;2.50;;
33347;SDS011;19707;51.158;17.124;2023-04-25T00:25:23;4.70;;;2.60;;
33347;SDS011;19707;51.158;17.124;2023-04-25T00:28:26;7.30;;;2.60;;
33347;SDS011;19707;51.158;17.124;2023-04-25T00:31:29;3.70;;;2.60;;
33347;SDS011;19707;51.158;17.124;2023-04-25T00:34:32;2.60;;;2.40;;
33347;SDS011;19707;51.158;17.124;2023-04-25T00:37:34;5.10;;;2.70;;
33347;SDS011;19707;51.158;17.124;2023-04-25T00:40:37;5.20;;;2.60;;
33347;SDS011;19707;51.158;17.124;2023-04-25T00:43:39;3.40;;;2.60;;
33347;SDS011;19707;51.158;17.124;2023-04-25T00:46:42;3.70;;;2.60;;
33347;SDS011;19707;51.158;17.124;2023-04-25T00:49:44;4.30;;;2.30;;
33347;SDS011;19707;51.158;17.124;2023-04-25T00:52:46;3.80;;;3.20;;
33347;SDS011;19707;51.158;17.124;2023-04-25T00:55:49;4.30;;;2.70;;
33347;SDS011;19707;51.158;17.124;2023-04-25T00:58:55;2.90;;;2.40;;
33347;SDS011;19707;51.158;17.124;2023-04-25T01:01:58;3.30;;;2.20;;
33347;SDS011;19707;51.158;17.124;2023-04-25T01:05:02;4.70;;;2.30;;
33347;SDS011;19707;51.158;17.124;2023-04-25T01:08:04;5.60;;;2.20;;
33347;SDS011;19707;51.158;17.124;2023-04-25T01:11:07;2.40;;;2.10;;
33347;SDS011;19707;51.158;17.124;2023-04-25T01:14:09;4.90;;;2.40;;
33347;SDS011;19707;51.158;17.124;2023-04-25T01:17:11;2.70;;;1.60;;
33347;SDS011;19707;51.158;17.124;2023-04-25T01:20:14;3.60;;;2.30;;
33347;SDS011;19707;51.158;17.124;2023-04-25T01:23:18;2.30;;;1.90;;
33347;SDS011;19707;51.158;17.124;2023-04-25T01:26:22;2.70;;;2.10;;
33347;SDS011;19707;51.158;17.124;2023-04-25T01:29:24;5.40;;;2.20;;
33347;SDS011;19707;51.158;17.124;2023-04-25T01:32:28;6.40;;;1.80;;
33347;SDS011;19707;51.158;17.124;2023-04-25T01:35:33;5.00;;;1.90;;
33347;SDS011;19707;51.158;17.124;2023-04-25T01:38:35;2.20;;;1.70;;
33347;SDS011;19707;51.158;17.124;2023-04-25T01:41:38;3.90;;;2.20;;
33347;SDS011;19707;51.158;17.124;2023-04-25T01:44:40;2.40;;;2.00;;
33347;SDS011;19707;51.158;17.124;2023-04-25T01:47:43;2.60;;;2.10;;
33347;SDS011;19707;51.158;17.124;2023-04-25T01:50:50;2.60;;;1.80;;
33347;SDS011;19707;51.158;17.124;2023-04-25T01:53:52;2.10;;;1.90;;
33347;SDS011;19707;51.158;17.124;2023-04-25T01:56:57;3.40;;;2.50;;
33347;SDS011;19707;51.158;17.124;2023-04-25T02:00:01;4.80;;;2.40;;
33347;SDS011;19707;51.158;17.124;2023-04-25T02:06:07;5.80;;;2.80;;
33347;SDS011;19707;51.158;17.124;2023-04-25T02:09:09;7.50;;;3.60;;
33347;SDS011;19707;51.158;17.124;2023-04-25T02:12:11;5.60;;;3.20;;
33347;SDS011;19707;51.158;17.124;2023-04-25T02:15:13;4.20;;;3.30;;
33347;SDS011;19707;51.158;17.124;2023-04-25T02:18:16;5.70;;;3.70;;
33347;SDS011;19707;51.158;17.124;2023-04-25T02:21:18;6.40;;;3.80;;
33347;SDS011;19707;51.158;17.124;2023-04-25T02:24:20;6.40;;;3.90;;
33347;SDS011;19707;51.158;17.124;2023-04-25T02:27:22;6.70;;;3.90;;
33347;SDS011;19707;51.158;17.124;2023-04-25T02:30:25;6.80;;;3.80;;
33347;SDS011;19707;51.158;17.124;2023-04-25T02:33:27;4.40;;;3.60;;
33347;SDS011;19707;51.158;17.124;2023-04-25T02:36:29;11.50;;;4.20;;
33347;SDS011;19707;51.158;17.124;2023-04-25T02:39:34;6.10;;;4.30;;
33347;SDS011;19707;51.158;17.124;2023-04-25T02:42:36;5.40;;;4.50;;
33347;SDS011;19707;51.158;17.124;2023-04-25T02:45:38;6.60;;;4.60;;
33347;SDS011;19707;51.158;17.124;2023-04-25T02:48:40;5.60;;;4.60;;
33347;SDS011;19707;51.158;17.124;2023-04-25T02:51:42;7.50;;;4.50;;
33347;SDS011;19707;51.158;17.124;2023-04-25T02:54:44;6.30;;;4.90;;
33347;SDS011;19707;51.158;17.124;2023-04-25T02:57:47;8.80;;;5.80;;
33347;SDS011;19707;51.158;17.124;2023-04-25T03:00:49;6.40;;;5.60;;
33347;SDS011;19707;51.158;17.124;2023-04-25T03:03:51;6.00;;;4.90;;
33347;SDS011;19707;51.158;17.124;2023-04-25T03:06:53;7.80;;;5.80;;
33347;SDS011;19707;51.158;17.124;2023-04-25T03:09:55;8.50;;;5.50;;
33347;SDS011;19707;51.158;17.124;2023-04-25T03:12:58;7.30;;;6.10;;
33347;SDS011;19707;51.158;17.124;2023-04-25T03:16:00;9.70;;;5.60;;
33347;SDS011;19707;51.158;17.124;2023-04-25T03:19:02;9.10;;;6.10;;
33347;SDS011;19707;51.158;17.124;2023-04-25T03:22:05;8.10;;;5.90;;
33347;SDS011;19707;51.158;17.124;2023-04-25T03:25:08;9.90;;;6.30;;
33347;SDS011;19707;51.158;17.124;2023-04-25T03:28:10;10.00;;;6.30;;
33347;SDS011;19707;51.158;17.124;2023-04-25T03:31:12;9.10;;;6.30;;
33347;SDS011;19707;51.158;17.124;2023-04-25T03:34:14;9.20;;;6.10;;
33347;SDS011;19707;51.158;17.124;2023-04-25T03:37:17;7.90;;;5.70;;
33347;SDS011;19707;51.158;17.124;2023-04-25T03:40:19;13.50;;;6.10;;
33347;SDS011;19707;51.158;17.124;2023-04-25T03:43:21;10.80;;;6.60;;
33347;SDS011;19707;51.158;17.124;2023-04-25T03:46:23;8.30;;;6.30;;
33347;SDS011;19707;51.158;17.124;2023-04-25T03:49:26;12.30;;;7.00;;
33347;SDS011;19707;51.158;17.124;2023-04-25T03:52:28;10.20;;;5.90;;
33347;SDS011;19707;51.158;17.124;2023-04-25T03:55:30;10.60;;;7.20;;
33347;SDS011;19707;51.158;17.124;2023-04-25T03:58:33;14.80;;;7.00;;
33347;SDS011;19707;51.158;17.124;2023-04-25T04:01:35;11.60;;;7.90;;
33347;SDS011;19707;51.158;17.124;2023-04-25T04:04:37;9.70;;;6.10;;
33347;SDS011;19707;51.158;17.124;2023-04-25T04:07:39;9.10;;;5.90;;
33347;SDS011;19707;51.158;17.124;2023-04-25T04:10:44;9.70;;;7.20;;
33347;SDS011;19707;51.158;17.124;2023-04-25T04:13:46;10.50;;;6.90;;
33347;SDS011;19707;51.158;17.124;2023-04-25T04:16:48;12.60;;;7.10;;
33347;SDS011;19707;51.158;17.124;2023-04-25T04:19:50;13.10;;;7.30;;
33347;SDS011;19707;51.158;17.124;2023-04-25T04:22:52;9.80;;;7.20;;
33347;SDS011;19707;51.158;17.124;2023-04-25T04:25:55;13.90;;;8.00;;
33347;SDS011;19707;51.158;17.124;2023-04-25T04:28:58;10.80;;;7.20;;
33347;SDS011;19707;51.158;17.124;2023-04-25T04:32:01;10.50;;;8.00;;
33347;SDS011;19707;51.158;17.124;2023-04-25T04:35:03;12.90;;;7.60;;
33347;SDS011;19707;51.158;17.124;2023-04-25T04:38:08;10.90;;;7.50;;
33347;SDS011;19707;51.158;17.124;2023-04-25T04:41:10;9.80;;;7.00;;
33347;SDS011;19707;51.158;17.124;2023-04-25T04:44:14;14.00;;;7.40;;
33347;SDS011;19707;51.158;17.124;2023-04-25T04:47:17;13.20;;;7.70;;
33347;SDS011;19707;51.158;17.124;2023-04-25T04:50:19;9.00;;;7.00;;
33347;SDS011;19707;51.158;17.124;2023-04-25T04:53:21;9.60;;;6.50;;
33347;SDS011;19707;51.158;17.124;2023-04-25T04:56:24;11.30;;;6.30;;
33347;SDS011;19707;51.158;17.124;2023-04-25T04:59:26;10.20;;;6.60;;
33347;SDS011;19707;51.158;17.124;2023-04-25T05:02:29;11.50;;;7.20;;
33347;SDS011;19707;51.158;17.124;2023-04-25T05:05:31;15.70;;;6.80;;
33347;SDS011;19707;51.158;17.124;2023-04-25T05:08:33;11.30;;;7.50;;
33347;SDS011;19707;51.158;17.124;2023-04-25T05:11:35;13.40;;;7.40;;
33347;SDS011;19707;51.158;17.124;2023-04-25T05:14:38;11.00;;;7.00;;
33347;SDS011;19707;51.158;17.124;2023-04-25T05:17:40;8.70;;;6.70;;
33347;SDS011;19707;51.158;17.124;2023-04-25T05:20:43;11.30;;;5.90;;
33347;SDS011;19707;51.158;17.124;2023-04-25T05:23:45;10.10;;;6.90;;
33347;SDS011;19707;51.158;17.124;2023-04-25T05:26:47;12.10;;;6.60;;
33347;SDS011;19707;51.158;17.124;2023-04-25T05:29:50;9.40;;;6.10;;
33347;SDS011;19707;51.158;17.124;2023-04-25T05:32:54;10.90;;;6.40;;
33347;SDS011;19707;51.158;17.124;2023-04-25T05:35:57;6.90;;;5.80;;
33347;SDS011;19707;51.158;17.124;2023-04-25T05:38:59;10.60;;;6.10;;
33347;SDS011;19707;51.158;17.124;2023-04-25T05:42:02;6.10;;;5.30;;
33347;SDS011;19707;51.158;17.124;2023-04-25T05:45:05;8.00;;;5.50;;
33347;SDS011;19707;51.158;17.124;2023-04-25T05:48:08;7.90;;;6.20;;
33347;SDS011;19707;51.158;17.124;2023-04-25T05:51:11;7.30;;;5.40;;
33347;SDS011;19707;51.158;17.124;2023-04-25T05:54:13;7.20;;;5.60;;
33347;SDS011;19707;51.158;17.124;2023-04-25T05:57:19;10.30;;;5.70;;
33347;SDS011;19707;51.158;17.124;2023-04-25T06:00:23;8.40;;;6.00;;
33347;SDS011;19707;51.158;17.124;2023-04-25T06:03:25;9.50;;;5.30;;
33347;SDS011;19707;51.158;17.124;2023-04-25T06:06:27;7.80;;;5.40;;
33347;SDS011;19707;51.158;17.124;2023-04-25T06:09:30;12.10;;;5.80;;
33347;SDS011;19707;51.158;17.124;2023-04-25T06:12:32;8.20;;;5.30;;
33347;SDS011;19707;51.158;17.124;2023-04-25T06:15:35;8.50;;;5.20;;
33347;SDS011;19707;51.158;17.124;2023-04-25T06:18:37;8.30;;;5.20;;
33347;SDS011;19707;51.158;17.124;2023-04-25T06:21:41;8.80;;;5.10;;
33347;SDS011;19707;51.158;17.124;2023-04-25T06:27:48;8.00;;;5.50;;
33347;SDS011;19707;51.158;17.124;2023-04-25T06:30:50;7.10;;;5.10;;
33347;SDS011;19707;51.158;17.124;2023-04-25T06:33:53;6.60;;;4.80;;
33347;SDS011;19707;51.158;17.124;2023-04-25T06:36:56;10.70;;;5.10;;
33347;SDS011;19707;51.158;17.124;2023-04-25T06:39:59;7.60;;;5.00;;
33347;SDS011;19707;51.158;17.124;2023-04-25T06:43:01;5.00;;;4.20;;
33347;SDS011;19707;51.158;17.124;2023-04-25T06:46:04;7.80;;;5.00;;
33347;SDS011;19707;51.158;17.124;2023-04-25T06:49:06;6.40;;;4.90;;
33347;SDS011;19707;51.158;17.124;2023-04-25T06:52:08;9.70;;;4.50;;
33347;SDS011;19707;51.158;17.124;2023-04-25T06:55:12;8.10;;;4.90;;
33347;SDS011;19707;51.158;17.124;2023-04-25T06:58:14;6.40;;;4.60;;
33347;SDS011;19707;51.158;17.124;2023-04-25T07:01:17;7.50;;;4.30;;
33347;SDS011;19707;51.158;17.124;2023-04-25T07:04:19;7.10;;;4.40;;
33347;SDS011;19707;51.158;17.124;2023-04-25T07:07:21;6.70;;;3.60;;
33347;SDS011;19707;51.158;17.124;2023-04-25T07:10:24;8.20;;;4.60;;
33347;SDS011;19707;51.158;17.124;2023-04-25T07:13:27;7.10;;;3.80;;
33347;SDS011;19707;51.158;17.124;2023-04-25T07:16:29;12.00;;;5.30;;
33347;SDS011;19707;51.158;17.124;2023-04-25T07:19:32;7.30;;;4.10;;
33347;SDS011;19707;51.158;17.124;2023-04-25T07:22:35;6.20;;;4.40;;
33347;SDS011;19707;51.158;17.124;2023-04-25T07:25:37;6.40;;;4.00;;
33347;SDS011;19707;51.158;17.124;2023-04-25T07:28:39;8.70;;;3.80;;
33347;SDS011;19707;51.158;17.124;2023-04-25T07:31:42;6.50;;;4.10;;
33347;SDS011;19707;51.158;17.124;2023-04-25T07:34:44;5.10;;;3.10;;
33347;SDS011;19707;51.158;17.124;2023-04-25T07:37:47;5.90;;;3.10;;
33347;SDS011;19707;51.158;17.124;2023-04-25T07:40:49;7.70;;;3.40;;
33347;SDS011;19707;51.158;17.124;2023-04-25T07:43:52;6.60;;;3.30;;
33347;SDS011;19707;51.158;17.124;2023-04-25T07:46:54;6.30;;;2.90;;
33347;SDS011;19707;51.158;17.124;2023-04-25T07:49:56;5.30;;;3.40;;
33347;SDS011;19707;51.158;17.124;2023-04-25T07:53:00;5.60;;;3.50;;
33347;SDS011;19707;51.158;17.124;2023-04-25T07:56:02;6.40;;;3.20;;
33347;SDS011;19707;51.158;17.124;2023-04-25T07:59:05;5.90;;;3.50;;
33347;SDS011;19707;51.158;17.124;2023-04-25T08:02:07;6.60;;;3.70;;
33347;SDS011;19707;51.158;17.124;2023-04-25T08:05:09;8.30;;;3.60;;
33347;SDS011;19707;51.158;17.124;2023-04-25T08:08:13;5.60;;;3.30;;
33347;SDS011;19707;51.158;17.124;2023-04-25T08:11:15;5.40;;;3.30;;
33347;SDS011;19707;51.158;17.124;2023-04-25T08:14:18;7.40;;;3.60;;
33347;SDS011;19707;51.158;17.124;2023-04-25T08:17:20;6.70;;;3.00;;
33347;SDS011;19707;51.158;17.124;2023-04-25T08:20:22;5.10;;;3.20;;
33347;SDS011;19707;51.158;17.124;2023-04-25T08:23:25;8.60;;;3.70;;
33347;SDS011;19707;51.158;17.124;2023-04-25T08:26:28;7.80;;;4.00;;
33347;SDS011;19707;51.158;17.124;2023-04-25T08:29:30;6.90;;;4.20;;
33347;SDS011;19707;51.158;17.124;2023-04-25T08:32:32;7.90;;;4.60;;
33347;SDS011;19707;51.158;17.124;2023-04-25T08:35:35;8.40;;;5.00;;
33347;SDS011;19707;51.158;17.124;2023-04-25T08:38:37;6.20;;;4.50;;
33347;SDS011;19707;51.158;17.124;2023-04-25T08:41:43;9.60;;;5.00;;
33347;SDS011;19707;51.158;17.124;2023-04-25T08:44:46;15.70;;;9.00;;
33347;SDS011;19707;51.158;17.124;2023-04-25T08:47:51;13.90;;;8.50;;
33347;SDS011;19707;51.158;17.124;2023-04-25T08:50:55;12.00;;;6.20;;
33347;SDS011;19707;51.158;17.124;2023-04-25T08:54:11;7.30;;;5.70;;
33347;SDS011;19707;51.158;17.124;2023-04-25T08:57:14;7.30;;;4.30;;
33347;SDS011;19707;51.158;17.124;2023-04-25T09:00:17;5.90;;;4.40;;
33347;SDS011;19707;51.158;17.124;2023-04-25T09:03:20;8.30;;;5.70;;
33347;SDS011;19707;51.158;17.124;2023-04-25T09:06:27;10.00;;;6.20;;
33347;SDS011;19707;51.158;17.124;2023-04-25T09:09:30;10.00;;;6.20;;
33347;SDS011;19707;51.158;17.124;2023-04-25T09:12:32;7.10;;;5.10;;
33347;SDS011;19707;51.158;17.124;2023-04-25T09:15:47;15.30;;;7.60;;
33347;SDS011;19707;51.158;17.124;2023-04-25T09:18:51;10.00;;;8.10;;
33347;SDS011;19707;51.158;17.124;2023-04-25T09:21:55;9.80;;;6.80;;
33347;SDS011;19707;51.158;17.124;2023-04-25T09:24:58;12.20;;;7.30;;
33347;SDS011;19707;51.158;17.124;2023-04-25T09:28:05;7.30;;;5.20;;
33347;SDS011;19707;51.158;17.124;2023-04-25T09:31:11;9.30;;;6.30;;
33347;SDS011;19707;51.158;17.124;2023-04-25T09:34:13;8.30;;;5.40;;
33347;SDS011;19707;51.158;17.124;2023-04-25T09:37:18;9.60;;;6.60;;
33347;SDS011;19707;51.158;17.124;2023-04-25T09:40:21;26.30;;;21.50;;
33347;SDS011;19707;51.158;17.124;2023-04-25T09:43:26;9.10;;;6.50;;
33347;SDS011;19707;51.158;17.124;2023-04-25T09:46:35;8.40;;;5.70;;
33347;SDS011;19707;51.158;17.124;2023-04-25T09:49:41;8.30;;;5.70;;
33347;SDS011;19707;51.158;17.124;2023-04-25T09:52:44;9.60;;;6.20;;
33347;SDS011;19707;51.158;17.124;2023-04-25T09:55:46;9.60;;;4.90;;
33347;SDS011;19707;51.158;17.124;2023-04-25T09:58:49;8.60;;;6.20;;
33347;SDS011;19707;51.158;17.124;2023-04-25T10:01:52;10.10;;;6.00;;
33347;SDS011;19707;51.158;17.124;2023-04-25T10:04:56;10.80;;;5.30;;
33347;SDS011;19707;51.158;17.124;2023-04-25T10:07:59;5.50;;;3.90;;
33347;SDS011;19707;51.158;17.124;2023-04-25T10:11:06;8.00;;;3.60;;
33347;SDS011;19707;51.158;17.124;2023-04-25T10:14:09;6.10;;;4.60;;
33347;SDS011;19707;51.158;17.124;2023-04-25T10:17:12;8.30;;;4.40;;
33347;SDS011;19707;51.158;17.124;2023-04-25T10:20:15;6.70;;;4.20;;
33347;SDS011;19707;51.158;17.124;2023-04-25T10:23:17;7.60;;;5.70;;
33347;SDS011;19707;51.158;17.124;2023-04-25T10:26:19;12.30;;;7.50;;
33347;SDS011;19707;51.158;17.124;2023-04-25T10:29:22;9.40;;;6.40;;
33347;SDS011;19707;51.158;17.124;2023-04-25T10:32:26;6.80;;;5.00;;
33347;SDS011;19707;51.158;17.124;2023-04-25T10:35:29;10.00;;;8.20;;
33347;SDS011;19707;51.158;17.124;2023-04-25T10:38:35;7.50;;;3.80;;
33347;SDS011;19707;51.158;17.124;2023-04-25T10:42:01;5.80;;;3.80;;
33347;SDS011;19707;51.158;17.124;2023-04-25T10:45:05;5.50;;;3.70;;
33347;SDS011;19707;51.158;17.124;2023-04-25T10:51:48;8.30;;;5.70;;
33347;SDS011;19707;51.158;17.124;2023-04-25T10:54:54;6.10;;;5.20;;
33347;SDS011;19707;51.158;17.124;2023-04-25T10:57:57;4.40;;;3.30;;
33347;SDS011;19707;51.158;17.124;2023-04-25T11:01:00;6.50;;;4.70;;
33347;SDS011;19707;51.158;17.124;2023-04-25T11:04:03;5.50;;;4.50;;
33347;SDS011;19707;51.158;17.124;2023-04-25T11:10:31;6.10;;;3.20;;
33347;SDS011;19707;51.158;17.124;2023-04-25T11:13:34;4.60;;;3.50;;
33347;SDS011;19707;51.158;17.124;2023-04-25T11:16:36;6.40;;;2.90;;
33347;SDS011;19707;51.158;17.124;2023-04-25T11:19:39;4.90;;;2.90;;
33347;SDS011;19707;51.158;17.124;2023-04-25T11:22:41;5.90;;;3.10;;
33347;SDS011;19707;51.158;17.124;2023-04-25T11:25:46;4.40;;;2.80;;
33347;SDS011;19707;51.158;17.124;2023-04-25T11:28:49;9.70;;;6.10;;
33347;SDS011;19707;51.158;17.124;2023-04-25T11:31:52;5.70;;;4.20;;
33347;SDS011;19707;51.158;17.124;2023-04-25T11:34:56;12.50;;;8.10;;
33347;SDS011;19707;51.158;17.124;2023-04-25T11:37:59;5.10;;;2.70;;
33347;SDS011;19707;51.158;17.124;2023-04-25T11:41:02;3.70;;;1.90;;
33347;SDS011;19707;51.158;17.124;2023-04-25T11:44:05;3.20;;;2.10;;
33347;SDS011;19707;51.158;17.124;2023-04-25T11:47:07;2.20;;;1.70;;
33347;SDS011;19707;51.158;17.124;2023-04-25T11:50:10;3.70;;;3.10;;
33347;SDS011;19707;51.158;17.124;2023-04-25T11:53:12;7.20;;;5.40;;
33347;SDS011;19707;51.158;17.124;2023-04-25T11:56:15;2.90;;;2.00;;
33347;SDS011;19707;51.158;17.124;2023-04-25T11:59:17;7.40;;;4.40;;
33347;SDS011;19707;51.158;17.124;2023-04-25T12:02:26;6.70;;;4.80;;
33347;SDS011;19707;51.158;17.124;2023-04-25T12:05:29;7.50;;;5.20;;
33347;SDS011;19707;51.158;17.124;2023-04-25T12:08:34;3.90;;;2.60;;
33347;SDS011;19707;51.158;17.124;2023-04-25T12:11:52;4.90;;;2.90;;
33347;SDS011;19707;51.158;17.124;2023-04-25T12:14:56;5.40;;;2.40;;
33347;SDS011;19707;51.158;17.124;2023-04-25T12:17:58;5.20;;;1.90;;
33347;SDS011;19707;51.158;17.124;2023-04-25T12:21:04;3.30;;;2.00;;
33347;SDS011;19707;51.158;17.124;2023-04-25T12:27:18;5.50;;;3.00;;
33347;SDS011;19707;51.158;17.124;2023-04-25T12:30:21;7.90;;;4.00;;
33347;SDS011;19707;51.158;17.124;2023-04-25T12:33:24;15.80;;;11.90;;
33347;SDS011;19707;51.158;17.124;2023-04-25T12:36:27;7.40;;;6.50;;
33347;SDS011;19707;51.158;17.124;2023-04-25T12:39:30;6.20;;;5.60;;
33347;SDS011;19707;51.158;17.124;2023-04-25T12:42:32;3.20;;;1.80;;
33347;SDS011;19707;51.158;17.124;2023-04-25T12:45:34;3.80;;;2.60;;
33347;SDS011;19707;51.158;17.124;2023-04-25T12:48:37;9.10;;;8.00;;
33347;SDS011;19707;51.158;17.124;2023-04-25T12:51:40;9.30;;;7.30;;
33347;SDS011;19707;51.158;17.124;2023-04-25T12:54:43;7.70;;;6.00;;
33347;SDS011;19707;51.158;17.124;2023-04-25T12:57:45;6.00;;;3.20;;
33347;SDS011;19707;51.158;17.124;2023-04-25T13:00:47;7.00;;;4.10;;
33347;SDS011;19707;51.158;17.124;2023-04-25T13:03:50;8.70;;;5.60;;
33347;SDS011;19707;51.158;17.124;2023-04-25T13:06:53;5.70;;;2.40;;
33347;SDS011;19707;51.158;17.124;2023-04-25T13:09:55;4.40;;;2.40;;
33347;SDS011;19707;51.158;17.124;2023-04-25T13:12:57;4.80;;;3.10;;
33347;SDS011;19707;51.158;17.124;2023-04-25T13:16:00;6.40;;;5.10;;
33347;SDS011;19707;51.158;17.124;2023-04-25T13:19:06;5.60;;;2.00;;
33347;SDS011;19707;51.158;17.124;2023-04-25T13:22:12;5.60;;;2.00;;
33347;SDS011;19707;51.158;17.124;2023-04-25T13:25:17;5.20;;;3.00;;
33347;SDS011;19707;51.158;17.124;2023-04-25T13:28:19;3.70;;;2.50;;
33347;SDS011;19707;51.158;17.124;2023-04-25T13:31:22;7.30;;;5.10;;
33347;SDS011;19707;51.158;17.124;2023-04-25T13:34:24;12.30;;;7.70;;
33347;SDS011;19707;51.158;17.124;2023-04-25T13:37:27;10.80;;;5.40;;
33347;SDS011;19707;51.158;17.124;2023-04-25T13:40:31;5.70;;;2.40;;
33347;SDS011;19707;51.158;17.124;2023-04-25T13:43:34;4.10;;;2.70;;
33347;SDS011;19707;51.158;17.124;2023-04-25T13:46:36;8.00;;;3.60;;
33347;SDS011;19707;51.158;17.124;2023-04-25T13:49:39;9.60;;;6.00;;
33347;SDS011;19707;51.158;17.124;2023-04-25T13:52:41;3.80;;;2.00;;
33347;SDS011;19707;51.158;17.124;2023-04-25T13:55:44;4.80;;;2.60;;
33347;SDS011;19707;51.158;17.124;2023-04-25T13:58:46;7.80;;;4.00;;
33347;SDS011;19707;51.158;17.124;2023-04-25T14:01:49;5.80;;;2.80;;
33347;SDS011;19707;51.158;17.124;2023-04-25T14:04:51;3.80;;;1.90;;
33347;SDS011;19707;51.158;17.124;2023-04-25T14:07:54;5.90;;;2.90;;
33347;SDS011;19707;51.158;17.124;2023-04-25T14:10:57;3.60;;;2.30;;
33347;SDS011;19707;51.158;17.124;2023-04-25T14:13:59;7.50;;;2.90;;
33347;SDS011;19707;51.158;17.124;2023-04-25T14:17:02;2.40;;;2.00;;
33347;SDS011;19707;51.158;17.124;2023-04-25T14:20:05;9.40;;;2.20;;
33347;SDS011;19707;51.158;17.124;2023-04-25T14:23:09;7.00;;;2.10;;
33347;SDS011;19707;51.158;17.124;2023-04-25T14:26:12;4.00;;;1.90;;
33347;SDS011;19707;51.158;17.124;2023-04-25T14:29:16;2.70;;;1.80;;
33347;SDS011;19707;51.158;17.124;2023-04-25T14:32:18;5.50;;;2.30;;
33347;SDS011;19707;51.158;17.124;2023-04-25T14:35:22;3.60;;;2.30;;
33347;SDS011;19707;51.158;17.124;2023-04-25T14:38:27;3.30;;;2.20;;
33347;SDS011;19707;51.158;17.124;2023-04-25T14:41:30;4.50;;;2.00;;
33347;SDS011;19707;51.158;17.124;2023-04-25T14:44:33;3.50;;;2.10;;
33347;SDS011;19707;51.158;17.124;2023-04-25T14:47:38;5.00;;;2.00;;
33347;SDS011;19707;51.158;17.124;2023-04-25T14:50:41;3.00;;;2.60;;
33347;SDS011;19707;51.158;17.124;2023-04-25T14:53:43;8.10;;;4.40;;
33347;SDS011;19707;51.158;17.124;2023-04-25T14:56:46;4.30;;;3.40;;
33347;SDS011;19707;51.158;17.124;2023-04-25T14:59:49;4.40;;;2.60;;
33347;SDS011;19707;51.158;17.124;2023-04-25T15:02:51;5.20;;;3.00;;
33347;SDS011;19707;51.158;17.124;2023-04-25T15:05:55;7.10;;;5.10;;
33347;SDS011;19707;51.158;17.124;2023-04-25T15:08:58;6.10;;;3.00;;
33347;SDS011;19707;51.158;17.124;2023-04-25T15:12:00;9.40;;;4.50;;
33347;SDS011;19707;51.158;17.124;2023-04-25T15:15:04;5.80;;;3.20;;
33347;SDS011;19707;51.158;17.124;2023-04-25T15:18:07;5.00;;;2.80;;
33347;SDS011;19707;51.158;17.124;2023-04-25T15:21:09;6.70;;;5.10;;
33347;SDS011;19707;51.158;17.124;2023-04-25T15:24:13;6.00;;;2.90;;
33347;SDS011;19707;51.158;17.124;2023-04-25T15:27:17;5.00;;;2.20;;
33347;SDS011;19707;51.158;17.124;2023-04-25T15:30:19;6.40;;;3.50;;
33347;SDS011;19707;51.158;17.124;2023-04-25T15:33:22;4.70;;;2.90;;
33347;SDS011;19707;51.158;17.124;2023-04-25T15:36:24;3.50;;;2.50;;
33347;SDS011;19707;51.158;17.124;2023-04-25T15:39:27;7.30;;;3.00;;
33347;SDS011;19707;51.158;17.124;2023-04-25T15:42:31;10.10;;;4.90;;
33347;SDS011;19707;51.158;17.124;2023-04-25T15:45:33;8.50;;;5.00;;
33347;SDS011;19707;51.158;17.124;2023-04-25T15:48:38;10.40;;;6.00;;
33347;SDS011;19707;51.158;17.124;2023-04-25T15:51:40;4.90;;;3.60;;
33347;SDS011;19707;51.158;17.124;2023-04-25T15:54:43;6.70;;;4.40;;
33347;SDS011;19707;51.158;17.124;2023-04-25T15:57:45;11.00;;;5.40;;
33347;SDS011;19707;51.158;17.124;2023-04-25T16:00:48;8.50;;;5.00;;
33347;SDS011;19707;51.158;17.124;2023-04-25T16:03:52;4.90;;;2.90;;
33347;SDS011;19707;51.158;17.124;2023-04-25T16:06:54;8.90;;;3.90;;
33347;SDS011;19707;51.158;17.124;2023-04-25T16:09:56;6.70;;;3.80;;
33347;SDS011;19707;51.158;17.124;2023-04-25T16:12:58;7.20;;;3.70;;
33347;SDS011;19707;51.158;17.124;2023-04-25T16:16:01;5.20;;;3.20;;
33347;SDS011;19707;51.158;17.124;2023-04-25T16:19:03;7.00;;;4.10;;
33347;SDS011;19707;51.158;17.124;2023-04-25T16:22:05;9.80;;;4.70;;
33347;SDS011;19707;51.158;17.124;2023-04-25T16:25:10;5.80;;;3.20;;
33347;SDS011;19707;51.158;17.124;2023-04-25T16:28:13;11.10;;;6.10;;
33347;SDS011;19707;51.158;17.124;2023-04-25T16:31:15;6.40;;;3.90;;
33347;SDS011;19707;51.158;17.124;2023-04-25T16:34:18;6.90;;;2.90;;
33347;SDS011;19707;51.158;17.124;2023-04-25T16:37:23;4.30;;;2.90;;
33347;SDS011;19707;51.158;17.124;2023-04-25T16:40:26;7.30;;;2.80;;
33347;SDS011;19707;51.158;17.124;2023-04-25T16:43:28;7.50;;;3.70;;
33347;SDS011;19707;51.158;17.124;2023-04-25T16:46:30;4.50;;;2.60;;
33347;SDS011;19707;51.158;17.124;2023-04-25T16:49:32;5.00;;;3.30;;
33347;SDS011;19707;51.158;17.124;2023-04-25T16:52:35;4.40;;;2.30;;
33347;SDS011;19707;51.158;17.124;2023-04-25T16:58:42;6.00;;;3.80;;
33347;SDS011;19707;51.158;17.124;2023-04-25T17:01:45;8.00;;;2.80;;
33347;SDS011;19707;51.158;17.124;2023-04-25T17:04:47;5.10;;;2.60;;
33347;SDS011;19707;51.158;17.124;2023-04-25T17:07:49;4.30;;;2.40;;
33347;SDS011;19707;51.158;17.124;2023-04-25T17:10:53;6.80;;;2.60;;
33347;SDS011;19707;51.158;17.124;2023-04-25T17:13:57;4.90;;;2.60;;
33347;SDS011;19707;51.158;17.124;2023-04-25T17:16:59;6.10;;;2.70;;
33347;SDS011;19707;51.158;17.124;2023-04-25T17:20:01;5.20;;;2.80;;
33347;SDS011;19707;51.158;17.124;2023-04-25T17:23:06;7.50;;;3.30;;
33347;SDS011;19707;51.158;17.124;2023-04-25T17:26:08;6.80;;;3.20;;
33347;SDS011;19707;51.158;17.124;2023-04-25T17:29:13;8.40;;;3.40;;
33347;SDS011;19707;51.158;17.124;2023-04-25T17:32:17;4.80;;;2.90;;
33347;SDS011;19707;51.158;17.124;2023-04-25T17:35:19;9.90;;;4.00;;
33347;SDS011;19707;51.158;17.124;2023-04-25T17:38:21;10.80;;;3.40;;
33347;SDS011;19707;51.158;17.124;2023-04-25T17:41:23;11.60;;;3.40;;
33347;SDS011;19707;51.158;17.124;2023-04-25T17:44:26;8.70;;;4.70;;
33347;SDS011;19707;51.158;17.124;2023-04-25T17:47:28;8.90;;;3.70;;
33347;SDS011;19707;51.158;17.124;2023-04-25T17:50:30;13.80;;;4.00;;
33347;SDS011;19707;51.158;17.124;2023-04-25T17:53:32;10.00;;;3.30;;
33347;SDS011;19707;51.158;17.124;2023-04-25T17:56:35;11.20;;;4.10;;
33347;SDS011;19707;51.158;17.124;2023-04-25T17:59:39;12.00;;;3.90;;
33347;SDS011;19707;51.158;17.124;2023-04-25T18:02:41;8.90;;;4.20;;
33347;SDS011;19707;51.158;17.124;2023-04-25T18:05:43;9.60;;;4.60;;
33347;SDS011;19707;51.158;17.124;2023-04-25T18:08:45;10.30;;;4.80;;
33347;SDS011;19707;51.158;17.124;2023-04-25T18:11:48;13.80;;;4.90;;
33347;SDS011;19707;51.158;17.124;2023-04-25T18:14:53;13.00;;;5.60;;
33347;SDS011;19707;51.158;17.124;2023-04-25T18:17:55;12.30;;;5.30;;
33347;SDS011;19707;51.158;17.124;2023-04-25T18:20:59;12.10;;;5.20;;